Impacts METAR Board
IDs:

KHOU - Houston/Hobby Arpt, TX, US

Updated at: 2000 UTC 13 Aug 2020
Potential Impact None Slight Moderate High
Time 13/08Z 13/09Z 13/10Z 13/11Z 13/12Z 13/13Z 13/14Z 13/15Z 13/16Z 13/17Z 13/18Z 13/19Z 13/20Z
Temp82 81 80 80 80 81 85 88 91 92 94 94 96
Dewpt76 76 76 76 76 76 77 74 73 71 70 70 70
Altim29.97 29.96 29.95 29.95 29.97 29.98 29.99 30.00 30.01 30.00 29.99 29.96 29.93
VIS10 10 10 10 10 10 10 10 10 10 10 10 10
CIG-- -- -- -- -- -- -- -- -- -- -- -- --
CoverSCTSCTCLRFEWSCTFEWFEWFEWFEWFEWSCTSCTSCT
FltCatVFRVFRVFRVFRVFRVFRVFRVFRVFRVFRVFRVFRVFR
WX--------------------------
WDir022020018019021024022023022000180
WSpd0 5 4 4 3 4 7 9 8 7 0 3 6
WGst-- -- -- -- -- -- -- -- -- -- -- -- --
R04/22
XWnd VRB -0 -2 -3 -2 -1 2 -1 1 -0 VRB VRB -4
HWnd VRB -5 -4 -3 -2 -4 -7 -9 -8 -7 VRB VRB -4
R12/30
XWnd VRB -5 -4 -3 -2 -4 -7 -9 -8 -7 VRB VRB -4
HWnd VRB 0 2 3 2 1 -2 1 -1 0 VRB VRB 4
R17/35
XWnd VRB -3 -1 -0 -1 -2 -6 -6 -6 -5 VRB VRB -0
HWnd VRB 4 4 4 3 3 3 7 5 5 VRB VRB 6
Raw hourly METARs
KHOU 130753Z 00000KT 10SM FEW018 SCT250 28/24 A2997 RMK AO2 SLP151 T02780244
KHOU 130853Z 22005KT 10SM SCT250 27/24 A2996 RMK AO2 SLP149 T02720244 50000
KHOU 130953Z 20004KT 10SM CLR 27/24 A2995 RMK AO2 SLP147 T02670244
KHOU 131053Z 18004KT 10SM FEW250 27/24 A2995 RMK AO2 SLP147 T02670244
KHOU 131153Z 19003KT 10SM FEW015 SCT250 27/24 A2997 RMK AO2 SLP152 T02670244 10278 20267 53003
KHOU 131253Z 21004KT 10SM FEW250 27/24 A2998 RMK AO2 SLP157 T02720244
KHOU 131353Z 24007KT 10SM FEW020 FEW250 29/25 A2999 RMK AO2 SLP160 T02940250
KHOU 131453Z 22009KT 10SM FEW025 FEW250 31/23 A3000 RMK AO2 SLP163 T03110233 51011
KHOU 131553Z 23008KT 10SM FEW030 33/23 A3001 RMK AO2 SLP164 T03280228
KHOU 131653Z 22007KT 10SM FEW035 33/22 A3000 RMK AO2 SLP163 T03330217
KHOU 131753Z 00000KT 10SM SCT040 34/21 A2999 RMK AO2 SLP159 T03440211 10344 20267 58004
KHOU 131853Z VRB03KT 10SM SCT050 34/21 A2996 RMK AO2 SLP148 T03440211
KHOU 131953Z 18006KT 10SM SCT060 36/21 A2993 RMK AO2 SLP140 T03560211



Page loaded:  20:28 UTC  |   01:28 PM Pacific  |   02:28 PM Mountain  |   03:28 PM Central  |   04:28 PM Eastern

 

ADVISORIES

FORECASTS

FORECASTS

OBSERVATIONS

USER TOOLS

ABOUT US